• Join FlightAware (Why Join?)
  • Login
  • US Flag 
03:04AM EDT


 

Airport Tracker/Info


-or-


 

Live Flight TrackerFlight Track Log ✈ AAL1326 ✈ 06-May-2013 ✈ KMCI - KORD

Flight Track Log - Related Links

Times and Time Zones

All times are in EDT time to prevent confusion due to time zone crossing. See the AAL1326 flight status page for this flight to view local times or setup timezone preferences in your user account.

Time Position Orientation Groundspeed Altitude Reporting Facility
EDT Latitude Longitude Course Direction KTS MPH feet Rate Location/Type
04:41PM 39.3975 -94.5755 46° Northeast  Level FlightAware Approximate
04:41PM 39.4280 -94.5870 41° Northeast 268 308 6,200  Level FlightAware
04:41PM 39.4370 -94.5750 46° Northeast 268 308 6,800 2,880 Climbing FlightAware
04:42PM 39.4692 -94.4910 41° Northeast  Level FlightAware Approximate
04:42PM 39.4660 -94.5350 47° Northeast 278 320 8,400  Level FlightAware
04:42PM 39.4810 -94.5150 46° Northeast 285 328 9,100 2,700 Climbing FlightAware
04:43PM 39.5180 -94.4660 46° Northeast 304 350 10,900 1,920 Climbing FlightAware
04:44PM 39.5620 -94.4070 46° Northeast 358 412 11,700 2,040 Climbing FlightAware
04:44PM 39.6140 -94.3380 46° Northeast 371 427 13,800 2,940 Climbing FlightAware
04:45PM 39.6630 -94.2720 46° Northeast 383 441 15,900 2,940 Climbing FlightAware
04:46PM 39.7190 -94.1960 46° Northeast 395 455 18,000 2,640 Climbing FlightAware
04:47PM 39.7870 -94.1020 47° Northeast 411 473 20,300 1,800 Climbing FlightAware
04:47PM 39.8300 -94.0410 47° Northeast 411 473 20,700 2,820 Climbing FlightAware
04:48PM 39.8960 -93.9510 46° Northeast 412 474 24,100 3,180 Climbing FlightAware
04:49PM 39.9540 -93.8710 47° Northeast 426 490 25,500 1,860 Climbing FlightAware
04:49PM 40.0090 -93.7930 47° Northeast 438 504 26,800 1,920 Climbing FlightAware
04:50PM 40.0360 -93.6870 72° East 440 506 28,300 2,160 Climbing FlightAware
04:51PM 40.0150 -93.5810 104° East 433 498 29,900 2,160 Climbing FlightAware
04:52PM 39.9850 -93.4730 110° East 430 495 31,400 1,680 Climbing FlightAware
04:52PM 39.9570 -93.3730 110° East 437 503 32,300 1,080 Climbing FlightAware
04:53PM 39.9250 -93.2600 110° East 445 512 33,000 480 Climbing FlightAware
04:54PM 39.8980 -93.1570 109° East 446 513 33,000  Level FlightAware
04:54PM 39.8950 -93.0510 92° East 447 514 33,000  Level FlightAware
04:55PM 39.8940 -92.9340 91° East 444 511 33,000  Level FlightAware
04:56PM 39.9070 -92.7870 83° East 439 505 33,000  Level FlightAware
04:57PM 39.9550 -92.6650 63° Northeast 440 506 33,000  Level FlightAware
04:58PM 39.9990 -92.5540 63° Northeast 437 503 33,000  Level FlightAware
04:58PM 40.0350 -92.4620 63° Northeast 436 502 33,000  Level FlightAware
04:59PM 40.0680 -92.3830 61° Northeast 435 501 33,000  Level FlightAware
05:00PM 40.1120 -92.2750 62° Northeast 433 498 33,000  Level FlightAware
05:01PM 40.1660 -92.1420 62° Northeast 433 498 33,000  Level FlightAware
05:01PM 40.1990 -92.0600 62° Northeast 431 496 33,000  Level FlightAware
05:02PM 40.2410 -91.9560 62° Northeast 432 497 33,000  Level FlightAware
05:03PM 40.2840 -91.8510 62° Northeast 431 496 33,000  Level FlightAware
05:04PM 40.3350 -91.7240 62° Northeast 428 493 33,000  Level FlightAware
05:04PM 40.3740 -91.6250 63° Northeast 429 494 33,000  Level FlightAware
05:05PM 40.4050 -91.5490 62° Northeast 429 494 33,000  Level FlightAware
05:06PM 40.4610 -91.4070 63° Northeast 427 491 33,000  Level FlightAware
05:07PM 40.5020 -91.3020 63° Northeast 426 490 33,000  Level FlightAware
05:07PM 40.5380 -91.2100 63° Northeast 425 489 33,000  Level FlightAware
05:08PM 40.5810 -91.1020 62° Northeast 423 487 33,000  Level FlightAware
05:09PM 40.6120 -91.0220 63° Northeast 423 487 33,000 -180 Level FlightAware
05:09PM 40.6530 -90.9190 62° Northeast 420 483 32,800 -420 Descending FlightAware
05:10PM 40.6900 -90.8230 63° Northeast 409 471 32,400 -540 Descending FlightAware
05:11PM 40.7240 -90.7350 63° Northeast 400 460 32,100 -480 Descending FlightAware
05:12PM 40.7630 -90.6340 63° Northeast 397 457 31,800 -480 Descending FlightAware
05:12PM 40.7970 -90.5460 63° Northeast 397 457 31,500 -660 Descending FlightAware
05:13PM 40.8240 -90.4760 63° Northeast 394 453 31,000 -960 Descending FlightAware
05:14PM 40.8640 -90.3720 63° Northeast 392 451 30,200 -1,020 Descending FlightAware
05:14PM 40.8980 -90.2820 63° Northeast 388 447 29,500 -1,020 Descending FlightAware
05:15PM 40.9430 -90.1630 63° Northeast 385 443 28,600 -1,020 Descending FlightAware
05:16PM 40.9780 -90.0710 63° Northeast 381 438 27,800 -1,080 Descending FlightAware
05:17PM 41.0100 -89.9880 63° Northeast 376 433 27,100 -1,020 Descending FlightAware
05:17PM 41.0450 -89.8950 63° Northeast 384 442 26,400 -900 Descending FlightAware
05:18PM 41.0780 -89.8070 64° Northeast 408 470 25,900 -900 Descending FlightAware
05:19PM 41.1120 -89.7160 64° Northeast 406 467 25,200 -1,080 Descending FlightAware
05:20PM 41.1490 -89.6180 63° Northeast 401 461 24,400 -1,500 Descending FlightAware
05:20PM 41.1960 -89.4990 62° Northeast 391 450 22,700 -1,920 Descending FlightAware
05:21PM 41.2300 -89.4140 62° Northeast 386 444 21,400 -1,860 Descending FlightAware
05:22PM 41.2650 -89.3270 62° Northeast 381 438 20,100 -1,800 Descending FlightAware
05:23PM 41.3000 -89.2410 62° Northeast 372 428 18,900 -1,800 Descending FlightAware
05:23PM 41.3320 -89.1620 62° Northeast 365 420 17,700 -1,860 Descending FlightAware
05:24PM 41.3670 -89.0720 63° Northeast 359 413 16,300 -1,860 Descending FlightAware
05:25PM 41.3990 -88.9930 62° Northeast 355 409 15,100 -1,800 Descending FlightAware
05:25PM 41.4320 -88.9100 62° Northeast 349 402 13,800 -1,740 Descending FlightAware
05:26PM 41.4620 -88.8340 62° Northeast 343 395 12,700 -1,740 Descending FlightAware
05:27PM 41.4930 -88.7570 62° Northeast 334 384 11,500 -1,320 Descending FlightAware
05:27PM 41.5230 -88.6800 62° Northeast 320 368 10,900 -480 Descending FlightAware
05:28PM 41.5490 -88.6150 62° Northeast 292 336 10,900 60 Level FlightAware
05:29PM 41.5770 -88.5430 63° Northeast 286 329 11,000  Climbing FlightAware
05:30PM 41.5990 -88.4810 65° Northeast 262 302 10,900 -120 Descending FlightAware
05:30PM 41.6170 -88.4250 67° East 241 277 10,900 -900 Level FlightAware
05:31PM 41.6370 -88.3630 67° East 235 270 9,700 -1,440 Descending FlightAware
05:31PM 41.6500 -88.3230 66° East 230 265 9,100 -1,200 Descending FlightAware
05:32PM 41.6600 -88.2910 67° East 222 255 8,600 -900 Descending FlightAware
05:32PM 41.6710 -88.2570 67° East 198 228 8,300 -840 Descending FlightAware
05:33PM 41.6820 -88.2250 65° Northeast 181 208 7,800 -1,080 Descending FlightAware
05:33PM 41.6880 -88.2160 48° Northeast 181 208 7,600 -1,440 Descending FlightAware
05:33PM 41.6970 -88.2030 47° Northeast 181 208 7,200 -1,500 Descending FlightAware
05:34PM 41.7150 -88.1790 45° Northeast 185 213 6,500 -1,440 Descending FlightAware
05:34PM 41.7310 -88.1610 40° Northeast 189 217 5,900 -1,320 Descending FlightAware
05:35PM 41.7510 -88.1380 41° Northeast 194 223 5,300 -840 Descending FlightAware
05:35PM 41.7710 -88.1140 42° Northeast 189 217 5,100 -480 Descending FlightAware
05:36PM 41.7870 -88.0950 42° Northeast 182 209 4,900 -780 Descending FlightAware
05:36PM 41.8070 -88.0720 41° Northeast 185 213 4,400 -1,020 Descending FlightAware
05:37PM 41.8220 -88.0540 42° Northeast 178 205 4,000 -1,020 Descending FlightAware
05:37PM 41.8400 -88.0330 41° Northeast 179 206 3,500 -1,020 Descending FlightAware
05:37PM 41.8570 -88.0140 40° Northeast 177 204 3,100 -1,020 Descending FlightAware
05:38PM 41.8760 -87.9910 42° Northeast 177 204 2,600 -960 Descending FlightAware
05:38PM 41.8840 -87.9810 43° Northeast 177 204 2,400 -960 Descending FlightAware
05:39PM 41.9020 -87.9600 41° Northeast 166 191 1,900 -900 Descending FlightAware
05:39PM 41.9160 -87.9430 42° Northeast 147 169 1,600 -780 Descending FlightAware
05:40PM 41.9300 -87.9270 40° Northeast 142 163 1,200 -720 Descending FlightAware
05:40PM 41.9400 -87.9150 42° Northeast 141 162 1,000 -780 Descending FlightAware
05:40PM 41.9500 -87.9030 42° Northeast 140 161 700 -900 Descending FlightAware